Time;durP1;ratioP1;P1;durP2;ratioP2;P2;SDS_P1;SDS_P2;PMS_P1;PMS_P2;Temp;Humidity;BMP_temperature;BMP_pressure;BME280_temperature;BME280_humidity;BME280_pressure;Samples;Min_cycle;Max_cycle;Signal;HPM_P1;HPM_P2
2023/03/19 00:00:35;;;;;;;9.70;4.55;;;;;;;7.57;100.00;99853.09;5039447;28;20072;-87
2023/03/19 00:03:02;;;;;;;9.48;4.18;;;;;;;7.79;100.00;99920.81;5025387;28;20057;-87
2023/03/19 00:05:29;;;;;;;11.13;5.07;;;;;;;7.45;100.00;99877.84;5024105;28;21714;-87
2023/03/19 00:07:56;;;;;;;10.02;4.30;;;;;;;7.30;100.00;99868.03;5029943;28;20491;-87
2023/03/19 00:10:22;;;;;;;10.02;4.40;;;;;;;7.59;100.00;99919.84;5017305;28;20068;-86
2023/03/19 00:12:49;;;;;;;10.05;3.92;;;;;;;7.26;100.00;99880.31;5050834;28;20398;-87
2023/03/19 00:15:16;;;;;;;10.82;4.72;;;;;;;7.44;100.00;99901.34;5049091;28;20060;-87
2023/03/19 00:17:43;;;;;;;13.27;5.63;;;;;;;7.71;100.00;99946.34;5049890;28;20048;-87
2023/03/19 00:20:11;;;;;;;12.25;4.90;;;;;;;7.75;100.00;99940.94;5033420;28;20057;-86
2023/03/19 00:22:38;;;;;;;11.25;4.65;;;;;;;7.74;100.00;99946.22;5033332;28;20037;-88
2023/03/19 00:25:07;;;;;;;10.07;4.05;;;;;;;7.62;100.00;99921.50;5020204;28;20057;-87
2023/03/19 00:27:36;;;;;;;10.13;4.05;;;;;;;7.52;100.00;99907.13;5014213;28;20123;-87
2023/03/19 00:30:05;;;;;;;10.55;4.35;;;;;;;7.74;100.00;99938.41;5030587;28;20050;-87
2023/03/19 00:32:32;;;;;;;9.55;3.63;;;;;;;7.78;100.00;99948.66;5027568;28;20048;-87
2023/03/19 00:35:00;;;;;;;8.45;3.67;;;;;;;7.61;100.00;99927.59;5027115;28;20053;-87
2023/03/19 00:37:27;;;;;;;8.65;3.42;;;;;;;7.44;100.00;99904.81;5036549;28;20045;-87
2023/03/19 00:39:54;;;;;;;8.57;3.70;;;;;;;7.49;100.00;99915.03;5051568;28;20053;-87
2023/03/19 00:42:21;;;;;;;8.70;3.55;;;;;;;7.54;100.00;99928.75;5025613;28;20084;-87
2023/03/19 00:44:48;;;;;;;6.75;2.95;;;;;;;7.24;100.00;99876.88;5035077;28;20683;-87
2023/03/19 00:47:15;;;;;;;8.07;3.40;;;;;;;7.30;100.00;99894.06;5026311;28;20388;-87
2023/03/19 00:49:42;;;;;;;8.75;3.55;;;;;;;7.41;100.00;99921.38;5049454;28;20045;-87
2023/03/19 00:52:08;;;;;;;8.00;3.40;;;;;;;7.06;100.00;99877.59;5036621;28;20199;-87
2023/03/19 00:54:35;;;;;;;8.82;3.60;;;;;;;7.30;100.00;99928.75;5054332;28;20053;-87
2023/03/19 00:57:02;;;;;;;8.38;3.53;;;;;;;7.14;100.00;99922.44;5037250;28;20399;-87
2023/03/19 00:59:29;;;;;;;8.68;3.55;;;;;;;7.14;100.00;99914.63;5035194;28;20049;-86
2023/03/19 01:01:56;;;;;;;8.20;3.15;;;;;;;7.02;100.00;99901.13;5035301;28;20399;-87
2023/03/19 01:04:22;;;;;;;7.65;3.50;;;;;;;7.20;100.00;99943.00;5036775;28;20049;-86
2023/03/19 01:06:49;;;;;;;7.68;2.67;;;;;;;7.11;100.00;99940.75;5036431;28;20098;-86
2023/03/19 01:09:16;;;;;;;6.68;2.72;;;;;;;7.03;100.00;99941.88;5025310;28;20766;-87
2023/03/19 01:11:43;;;;;;;7.35;2.83;;;;;;;6.95;100.00;99936.09;5021348;28;20080;-86
2023/03/19 01:14:10;;;;;;;7.65;2.85;;;;;;;7.31;100.00;100005.13;5032614;28;20052;-87
2023/03/19 01:16:37;;;;;;;8.32;3.42;;;;;;;6.73;100.00;99925.59;5032727;28;20064;-86
2023/03/19 01:19:04;;;;;;;6.35;2.47;;;;;;;6.93;100.00;99966.53;5033771;28;20052;-87
2023/03/19 01:21:32;;;;;;;7.47;2.90;;;;;;;7.08;100.00;100000.72;5022087;28;20132;-87
2023/03/19 01:23:59;;;;;;;5.20;2.15;;;;;;;6.76;100.00;99942.84;5036544;28;20040;-87
2023/03/19 01:26:26;;;;;;;6.00;2.42;;;;;;;6.80;100.00;99950.50;5054378;28;20402;-88
2023/03/19 01:28:53;;;;;;;5.50;2.15;;;;;;;7.12;100.00;100018.78;5035051;28;20049;-88
2023/03/19 01:31:20;;;;;;;5.40;2.03;;;;;;;6.91;100.00;99975.28;5026913;28;20045;-87
2023/03/19 01:33:47;;;;;;;6.40;2.08;;;;;;;6.95;100.00;99977.72;5033130;28;20376;-87
2023/03/19 01:36:14;;;;;;;3.03;1.45;;;;;;;6.97;100.00;99980.28;5036645;28;20044;-87
2023/03/19 01:38:41;;;;;;;3.80;1.77;;;;;;;6.83;100.00;99968.59;5023274;28;20050;-87
2023/03/19 01:41:08;;;;;;;4.60;1.48;;;;;;;7.09;100.00;100020.66;5035345;28;20053;-86
2023/03/19 01:43:35;;;;;;;3.22;1.33;;;;;;;7.02;100.00;100000.03;5046512;28;20381;-87
2023/03/19 01:46:05;;;;;;;2.67;1.30;;;;;;;7.47;100.00;100061.00;5028956;28;20132;-87
2023/03/19 01:48:49;;;;;;;2.45;1.10;;;;;;;7.60;100.00;100062.22;5037970;28;20051;-88
2023/03/19 01:51:17;;;;;;;;;;;;;;;7.72;100.00;100066.16;5035973;28;20049;-86
2023/03/19 01:53:51;;;;;;;2.40;1.10;;;;;;;7.59;100.00;100034.47;5053859;28;19921;-87
2023/03/19 01:56:21;;;;;;;2.88;1.30;;;;;;;7.69;100.00;100057.59;5035950;28;20501;-88
2023/03/19 01:58:52;;;;;;;3.13;1.20;;;;;;;7.65;100.00;100051.66;5032351;28;20053;-88
2023/03/19 02:01:19;;;;;;;2.03;1.08;;;;;;;7.66;100.00;100052.50;5034589;28;20562;-87
2023/03/19 02:03:47;;;;;;;2.50;1.15;;;;;;;7.86;100.00;100078.69;5035752;28;20048;-87
2023/03/19 02:06:15;;;;;;;3.65;1.10;;;;;;;7.72;100.00;100066.16;5035599;28;20056;-87
2023/03/19 02:08:42;;;;;;;2.10;1.20;;;;;;;7.53;100.00;100031.25;5033075;28;20049;-87
2023/03/19 02:11:09;;;;;;;1.48;1.05;;;;;;;7.52;100.00;99999.13;5034814;28;20060;-87
2023/03/19 02:13:36;;;;;;;1.80;1.10;;;;;;;7.50;100.00;100011.34;5053223;28;20064;-87
2023/03/19 02:16:04;;;;;;;1.88;1.10;;;;;;;7.55;100.00;100021.63;5035208;28;20045;-87
2023/03/19 02:18:31;;;;;;;2.63;1.20;;;;;;;7.63;100.00;100040.41;5028443;28;20049;-87
2023/03/19 02:21:05;;;;;;;3.10;1.42;;;;;;;7.65;100.00;100063.81;5035485;28;20049;-87
2023/03/19 02:23:35;;;;;;;1.83;1.10;;;;;;;7.36;100.00;100063.94;5034627;28;20049;-86
2023/03/19 02:26:05;;;;;;;1.92;1.08;;;;;;;7.27;100.00;100056.47;5026992;28;20118;-87
2023/03/19 02:28:35;;;;;;;2.25;1.10;;;;;;;7.19;100.00;100046.31;5022182;28;20049;-87
2023/03/19 02:31:02;;;;;;;2.58;1.15;;;;;;;6.94;100.00;100015.09;5028445;28;20053;-88
2023/03/19 02:33:29;;;;;;;2.45;1.10;;;;;;;6.99;100.00;100020.97;5016522;28;20109;-87
2023/03/19 02:35:57;;;;;;;2.63;1.30;;;;;;;7.11;100.00;100074.34;5018946;28;20059;-87
2023/03/19 02:38:26;;;;;;;3.05;1.38;;;;;;;6.87;100.00;100047.41;5022574;28;20049;-87
2023/03/19 02:40:59;;;;;;;2.70;1.25;;;;;;;6.93;100.00;100059.38;5032248;28;20053;-86
2023/03/19 02:43:26;;;;;;;3.17;1.25;;;;;;;6.80;100.00;100038.97;5045037;28;20056;-87
2023/03/19 02:45:54;;;;;;;4.90;1.40;;;;;;;6.58;100.00;100023.19;5027385;28;20065;-87
2023/03/19 02:48:21;;;;;;;1.73;1.02;;;;;;;6.62;100.00;100040.41;5020589;28;20095;-87
2023/03/19 02:50:47;;;;;;;2.42;1.20;;;;;;;6.46;100.00;100027.06;5052682;28;20049;-87
2023/03/19 02:53:14;;;;;;;2.00;1.13;;;;;;;6.35;100.00;100005.72;5038400;28;20048;-87
2023/03/19 02:55:42;;;;;;;2.30;1.20;;;;;;;6.49;100.00;100028.69;5052382;28;20084;-87
2023/03/19 02:58:08;;;;;;;3.35;1.10;;;;;;;6.49;100.00;100048.66;5032515;28;20102;-88
2023/03/19 03:00:36;;;;;;;2.80;1.00;;;;;;;6.50;100.00;100037.34;5050611;28;20061;-89
2023/03/19 03:03:05;;;;;;;2.58;1.10;;;;;;;6.36;100.00;100032.59;5034548;28;20041;-88
2023/03/19 03:05:33;;;;;;;1.95;1.10;;;;;;;6.45;100.00;100050.50;5038613;28;20041;-87
2023/03/19 03:07:59;;;;;;;1.67;1.02;;;;;;;6.31;100.00;100045.72;5026111;28;20045;-87
2023/03/19 03:10:26;;;;;;;1.55;1.00;;;;;;;6.28;100.00;100043.22;5049295;28;20044;-88
2023/03/19 03:12:54;;;;;;;1.95;1.00;;;;;;;6.52;100.00;100097.97;5026912;28;20056;-87
2023/03/19 03:15:20;;;;;;;1.65;1.00;;;;;;;6.54;100.00;100102.22;5038334;28;20048;-88
2023/03/19 03:17:47;;;;;;;1.52;1.00;;;;;;;6.26;100.00;100058.00;5050041;28;20056;-86
2023/03/19 03:20:16;;;;;;;1.40;1.00;;;;;;;6.21;100.00;100044.31;5032980;28;20056;-87
2023/03/19 03:22:43;;;;;;;2.42;1.08;;;;;;;6.29;100.00;100067.50;5033593;28;20053;-86
2023/03/19 03:25:10;;;;;;;1.98;1.10;;;;;;;6.38;100.00;100101.00;5033571;28;20403;-87
2023/03/19 03:27:37;;;;;;;1.50;0.90;;;;;;;6.43;100.00;100119.91;5049161;28;20091;-86
2023/03/19 03:30:06;;;;;;;1.92;0.90;;;;;;;6.18;100.00;100086.84;5046783;28;20115;-87
2023/03/19 03:32:35;;;;;;;0.90;0.80;;;;;;;6.41;100.00;100111.28;5033417;28;20064;-86
2023/03/19 03:35:04;;;;;;;2.55;1.00;;;;;;;6.41;100.00;100132.97;5029478;28;20407;-87
2023/03/19 03:37:30;;;;;;;2.03;1.02;;;;;;;6.25;100.00;100080.56;5049394;28;20647;-87
2023/03/19 03:39:57;;;;;;;2.28;1.10;;;;;;;6.22;100.00;100101.44;5046925;28;20053;-86
2023/03/19 03:42:24;;;;;;;1.50;1.00;;;;;;;6.20;100.00;100105.00;5031876;28;20483;-87
2023/03/19 03:44:51;;;;;;;1.70;1.10;;;;;;;5.86;100.00;100072.16;5021288;28;20053;-87
2023/03/19 03:47:17;;;;;;;1.38;0.90;;;;;;;5.95;100.00;100092.69;5032346;28;20045;-87
2023/03/19 03:49:44;;;;;;;1.27;1.00;;;;;;;5.79;100.00;100089.69;5018816;28;20081;-86
2023/03/19 03:52:11;;;;;;;1.50;1.10;;;;;;;5.95;100.00;100115.22;5041096;28;20544;-87
2023/03/19 03:54:37;;;;;;;2.45;1.02;;;;;;;5.93;100.00;100117.00;5050232;28;20037;-87
2023/03/19 03:57:04;;;;;;;1.85;1.00;;;;;;;5.97;100.00;100135.09;5049391;28;20052;-86
2023/03/19 03:59:31;;;;;;;2.40;1.27;;;;;;;5.53;100.00;100082.59;5023924;28;20075;-87
2023/03/19 04:01:58;;;;;;;1.20;1.00;;;;;;;5.74;100.00;100107.13;5051385;28;20377;-87
2023/03/19 04:04:25;;;;;;;1.63;1.10;;;;;;;5.93;100.00;100155.97;5025164;28;20414;-86
2023/03/19 04:06:52;;;;;;;1.60;1.00;;;;;;;5.69;100.00;100125.44;5032969;28;20093;-86
2023/03/19 04:09:18;;;;;;;2.17;1.20;;;;;;;5.59;100.00;100121.38;5025358;28;20060;-87
2023/03/19 04:11:45;;;;;;;2.00;1.10;;;;;;;5.76;100.00;100140.88;5032170;28;20065;-87
2023/03/19 04:14:12;;;;;;;2.17;1.00;;;;;;;5.63;100.00;100129.94;5055154;28;20052;-87
2023/03/19 04:16:39;;;;;;;1.85;1.00;;;;;;;5.70;100.00;100147.06;5049945;28;20703;-87
2023/03/19 04:19:06;;;;;;;1.85;1.10;;;;;;;5.71;100.00;100159.16;5021947;28;20057;-87
2023/03/19 04:21:33;;;;;;;3.17;1.10;;;;;;;5.62;100.00;100157.66;5046613;28;20041;-87
2023/03/19 04:24:01;;;;;;;1.55;1.10;;;;;;;5.60;100.00;100151.66;5017684;28;20053;-87
2023/03/19 04:26:27;;;;;;;2.55;1.00;;;;;;;5.63;100.00;100149.00;5030650;28;20049;-87
2023/03/19 04:28:54;;;;;;;0.93;0.80;;;;;;;5.78;100.00;100152.91;5043111;28;20128;-88
2023/03/19 04:31:21;;;;;;;1.17;1.00;;;;;;;5.74;100.00;100147.81;5037632;28;20056;-88
2023/03/19 04:33:48;;;;;;;2.08;1.05;;;;;;;5.56;100.00;100121.47;5030973;28;20479;-88
2023/03/19 04:36:16;;;;;;;1.00;0.90;;;;;;;5.48;100.00;100100.91;5029979;28;20064;-88
2023/03/19 04:38:43;;;;;;;1.10;0.90;;;;;;;5.66;100.00;100132.47;5051414;28;20462;-87
2023/03/19 04:41:10;;;;;;;2.28;1.10;;;;;;;6.05;100.00;100197.25;5037555;28;20123;-87
2023/03/19 04:43:36;;;;;;;1.15;0.90;;;;;;;5.80;100.00;100166.72;5033800;28;20055;-88
2023/03/19 04:46:03;;;;;;;1.00;0.90;;;;;;;5.95;100.00;100178.44;5023864;28;20049;-87
2023/03/19 04:48:31;;;;;;;1.52;1.00;;;;;;;5.79;100.00;100157.22;5043628;28;20641;-87
2023/03/19 04:50:57;;;;;;;1.63;1.10;;;;;;;5.84;100.00;100177.88;5029558;28;20052;-88
2023/03/19 04:53:24;;;;;;;1.52;0.93;;;;;;;5.85;100.00;100177.84;5022700;28;20445;-88
2023/03/19 04:55:51;;;;;;;1.02;0.90;;;;;;;5.85;100.00;100170.03;5040871;28;20057;-88
2023/03/19 04:58:17;;;;;;;1.33;0.90;;;;;;;5.86;100.00;100163.97;5032183;28;20053;-88
2023/03/19 05:00:46;;;;;;;1.20;1.00;;;;;;;5.87;100.00;100176.03;5053359;28;20049;-88
2023/03/19 05:03:16;;;;;;;1.58;1.00;;;;;;;6.11;100.00;100219.63;5033079;28;20053;-87
2023/03/19 05:05:43;;;;;;;1.85;1.00;;;;;;;6.26;100.00;100238.25;5036257;28;20441;-88
2023/03/19 05:08:10;;;;;;;1.20;1.00;;;;;;;6.08;100.00;100213.63;5031804;28;20052;-87
2023/03/19 05:10:37;;;;;;;1.20;0.93;;;;;;;6.35;100.00;100239.75;5030420;28;20057;-87
2023/03/19 05:13:04;;;;;;;1.77;1.00;;;;;;;6.36;100.00;100209.41;5046057;28;20398;-87
2023/03/19 05:15:31;;;;;;;2.95;1.02;;;;;;;6.45;100.00;100229.94;5027111;28;20530;-85
2023/03/19 05:17:58;;;;;;;3.08;1.10;;;;;;;6.72;100.00;100232.63;5033766;28;20063;-87
2023/03/19 05:20:24;;;;;;;1.55;1.00;;;;;;;6.71;100.00;100213.59;5026705;28;20049;-87
2023/03/19 05:22:52;;;;;;;1.95;0.98;;;;;;;6.90;100.00;100224.25;5033533;28;20056;-87
2023/03/19 05:25:19;;;;;;;1.55;1.10;;;;;;;7.13;100.00;100233.13;5054598;28;20056;-87
2023/03/19 05:27:46;;;;;;;2.03;0.85;;;;;;;7.11;100.00;100209.72;5052283;28;20067;-86
2023/03/19 05:30:13;;;;;;;3.28;1.10;;;;;;;7.35;100.00;100273.22;5021243;28;20055;-88
2023/03/19 05:32:40;;;;;;;4.15;1.10;;;;;;;7.34;100.00;100247.22;5051513;28;20045;-89
2023/03/19 05:35:07;;;;;;;1.50;1.00;;;;;;;7.53;100.00;100268.31;5031981;28;20117;-89
2023/03/19 05:37:34;;;;;;;3.08;1.05;;;;;;;7.71;100.00;100285.09;5043283;28;20045;-89
2023/03/19 05:40:01;;;;;;;1.90;1.10;;;;;;;7.59;100.00;100260.28;5052653;28;20064;-88
2023/03/19 05:42:27;;;;;;;6.57;1.40;;;;;;;7.58;100.00;100256.84;5028277;28;20053;-88
2023/03/19 05:44:54;;;;;;;2.97;1.20;;;;;;;7.25;100.00;100242.31;5047426;28;20053;-88
2023/03/19 05:47:21;;;;;;;5.45;1.48;;;;;;;7.61;100.00;100287.13;5035926;28;20056;-88
2023/03/19 05:49:49;;;;;;;3.45;1.30;;;;;;;7.78;100.00;100290.06;5027602;28;20049;-88
2023/03/19 05:52:16;;;;;;;4.85;1.30;;;;;;;7.35;100.00;100238.50;5051242;28;20532;-89
2023/03/19 05:54:42;;;;;;;3.28;1.10;;;;;;;7.36;100.00;100243.66;5041421;28;20049;-87
2023/03/19 05:57:09;;;;;;;3.67;1.20;;;;;;;7.50;100.00;100274.47;5029565;28;20050;-87
2023/03/19 05:59:36;;;;;;;4.88;1.50;;;;;;;7.38;100.00;100259.22;5029507;28;20055;-87
2023/03/19 06:02:02;;;;;;;7.40;1.48;;;;;;;7.67;100.00;100302.59;5033352;28;20071;-87
2023/03/19 06:04:30;;;;;;;6.38;1.58;;;;;;;7.67;100.00;100294.78;5035662;28;20537;-87
2023/03/19 06:06:56;;;;;;;6.68;1.20;;;;;;;7.58;100.00;100297.69;5053485;28;20048;-85
2023/03/19 06:09:23;;;;;;;6.20;1.30;;;;;;;7.67;100.00;100309.56;5044840;28;20044;-85
2023/03/19 06:11:50;;;;;;;4.10;1.90;;;;;;;7.65;100.00;100283.56;5033538;28;20210;-88
2023/03/19 06:14:17;;;;;;;3.42;1.08;;;;;;;7.75;100.00;100311.00;5029939;28;20041;-89
2023/03/19 06:16:44;;;;;;;4.35;1.38;;;;;;;7.72;100.00;100297.22;5035504;28;20045;-88
2023/03/19 06:19:10;;;;;;;9.35;1.40;;;;;;;7.75;100.00;100321.41;5051492;28;20517;-88
2023/03/19 06:21:37;;;;;;;2.85;1.13;;;;;;;7.19;100.00;100285.84;5045945;28;20052;-89
2023/03/19 06:24:04;;;;;;;6.28;1.30;;;;;;;7.63;100.00;100313.16;5024907;28;20455;-87
2023/03/19 06:26:31;;;;;;;6.68;1.70;;;;;;;7.26;100.00;100291.75;5026304;28;20052;-89
2023/03/19 06:28:57;;;;;;;4.65;1.10;;;;;;;7.16;100.00;100283.34;5026426;28;20053;-87
2023/03/19 06:31:24;;;;;;;3.58;0.90;;;;;;;7.19;100.00;100309.28;5030094;28;20056;-88
2023/03/19 06:33:51;;;;;;;4.80;1.20;;;;;;;7.53;100.00;100347.31;5031625;28;20049;-87
2023/03/19 06:36:18;;;;;;;2.75;0.93;;;;;;;7.29;100.00;100314.22;5035206;28;20063;-87
2023/03/19 06:38:45;;;;;;;5.07;1.05;;;;;;;7.44;100.00;100339.78;5028363;28;20049;-87
2023/03/19 06:41:12;;;;;;;3.45;1.10;;;;;;;7.21;100.00;100332.69;5044135;28;20053;-86
2023/03/19 06:43:40;;;;;;;2.67;1.00;;;;;;;7.12;100.00;100289.56;5052685;28;20063;-87
2023/03/19 06:46:08;;;;;;;3.92;1.10;;;;;;;7.41;100.00;100352.91;5034482;28;20068;-87
2023/03/19 06:48:37;;;;;;;3.17;1.30;;;;;;;7.38;100.00;100348.66;5033348;28;20155;-88
2023/03/19 06:51:05;;;;;;;4.53;1.20;;;;;;;7.48;100.00;100349.22;5034916;28;20049;-88
2023/03/19 06:53:32;;;;;;;5.40;1.35;;;;;;;7.52;100.00;100334.34;5034750;28;20511;-88
2023/03/19 06:55:58;;;;;;;3.08;1.20;;;;;;;7.30;100.00;100334.16;5034647;28;20487;-87
2023/03/19 06:58:25;;;;;;;2.47;1.10;;;;;;;7.25;100.00;100331.69;5030733;28;20418;-88
2023/03/19 07:00:52;;;;;;;6.28;1.30;;;;;;;7.34;100.00;100361.81;5038745;28;20064;-88
2023/03/19 07:03:19;;;;;;;4.03;1.33;;;;;;;7.17;100.00;100360.56;5034735;28;20556;-88
2023/03/19 07:05:50;;;;;;;2.97;0.90;;;;;;;7.33;100.00;100379.19;5052438;28;20052;-88
2023/03/19 07:08:17;;;;;;;8.35;1.40;;;;;;;7.56;100.00;100398.47;5032480;28;20049;-88
2023/03/19 07:10:44;;;;;;;3.85;1.33;;;;;;;7.13;100.00;100361.53;5033374;28;20128;-88
2023/03/19 07:13:10;;;;;;;3.72;1.10;;;;;;;7.16;100.00;100332.81;5028788;28;20041;-87
2023/03/19 07:15:37;;;;;;;3.17;1.00;;;;;;;7.48;100.00;100366.59;5049398;28;20041;-89
2023/03/19 07:18:04;;;;;;;7.00;1.42;;;;;;;7.45;100.00;100380.56;5048649;28;20057;-89
2023/03/19 07:20:31;;;;;;;6.00;1.15;;;;;;;7.31;100.00;100356.69;5033881;28;20052;-87
2023/03/19 07:22:58;;;;;;;4.82;1.65;;;;;;;7.34;100.00;100380.03;5033935;28;20072;-86
2023/03/19 07:25:25;;;;;;;5.05;1.58;;;;;;;7.35;100.00;100372.19;5033102;28;20418;-87
2023/03/19 07:27:52;;;;;;;7.78;1.60;;;;;;;7.60;100.00;100415.72;5045996;28;20045;-88
2023/03/19 07:30:22;;;;;;;3.42;1.10;;;;;;;7.46;100.00;100382.28;5047700;28;20051;-88
2023/03/19 07:32:49;;;;;;;4.75;1.30;;;;;;;7.43;100.00;100416.22;5051123;28;20049;-89
2023/03/19 07:35:16;;;;;;;5.40;1.20;;;;;;;7.34;100.00;100386.09;5050999;28;20430;-87
2023/03/19 07:37:42;;;;;;;3.97;1.13;;;;;;;7.41;100.00;100398.03;5032287;28;20053;-88
2023/03/19 07:40:10;;;;;;;6.45;1.35;;;;;;;7.27;100.00;100387.16;5030294;28;20744;-87
2023/03/19 07:42:37;;;;;;;5.82;1.45;;;;;;;7.52;100.00;100417.69;5033601;28;20045;-88
2023/03/19 07:45:05;;;;;;;5.72;1.20;;;;;;;7.31;100.00;100372.31;5035824;28;20053;-87
2023/03/19 07:47:32;;;;;;;6.45;1.48;;;;;;;7.58;100.00;100405.34;5036831;28;20049;-88
2023/03/19 07:49:59;;;;;;;7.07;1.48;;;;;;;7.61;100.00;100399.19;5032743;28;20049;-89
2023/03/19 07:52:26;;;;;;;5.93;1.38;;;;;;;7.67;100.00;100435.50;5026884;28;20049;-89
2023/03/19 07:54:53;;;;;;;8.02;1.58;;;;;;;7.62;100.00;100436.53;5033819;28;20060;-86
2023/03/19 07:57:19;;;;;;;3.80;1.13;;;;;;;7.77;100.00;100451.69;5034465;28;20037;-86
2023/03/19 07:59:46;;;;;;;7.28;1.60;;;;;;;7.64;100.00;100427.75;5034364;28;20658;-86
2023/03/19 08:02:13;;;;;;;5.63;1.38;;;;;;;7.96;100.00;100472.84;5033224;28;20056;-86
2023/03/19 08:04:40;;;;;;;4.15;1.30;;;;;;;7.79;100.00;100478.53;5042622;28;20660;-88
2023/03/19 08:07:11;;;;;;;4.18;1.30;;;;;;;7.93;100.00;100476.41;5037406;28;20124;-87
2023/03/19 08:09:39;;;;;;;6.28;1.20;;;;;;;7.93;100.00;100467.72;5047749;28;20637;-88
2023/03/19 08:12:07;;;;;;;4.90;1.40;;;;;;;7.89;100.00;100450.47;5031071;28;20154;-87
2023/03/19 08:14:34;;;;;;;5.95;1.35;;;;;;;7.54;100.00;100436.75;5020708;28;20538;-87
2023/03/19 08:17:04;;;;;;;4.90;1.15;;;;;;;8.13;100.00;100487.97;5029382;28;20407;-88
2023/03/19 08:19:31;;;;;;;3.25;1.00;;;;;;;7.97;100.00;100436.28;5039885;28;20053;-87
2023/03/19 08:21:58;;;;;;;5.70;1.40;;;;;;;8.35;100.00;100460.28;5054203;28;20097;-88
2023/03/19 08:24:25;;;;;;;3.17;1.17;;;;;;;8.57;100.00;100464.84;5037232;28;20056;-87
2023/03/19 08:26:52;;;;;;;3.83;1.10;;;;;;;8.99;100.00;100515.63;5037222;28;20498;-88
2023/03/19 08:29:19;;;;;;;6.53;1.35;;;;;;;8.34;100.00;100457.75;5034926;28;20052;-87
2023/03/19 08:31:46;;;;;;;2.50;1.05;;;;;;;8.63;100.00;100484.66;5053712;28;20053;-87
2023/03/19 08:34:13;;;;;;;3.40;1.30;;;;;;;8.77;100.00;100487.63;5033487;28;20045;-87
2023/03/19 08:36:40;;;;;;;3.15;1.00;;;;;;;9.16;100.00;100528.94;5051291;28;20055;-87
2023/03/19 08:39:07;;;;;;;4.00;1.00;;;;;;;9.28;100.00;100533.75;5035928;28;20045;-87
2023/03/19 08:41:34;;;;;;;2.88;1.10;;;;;;;8.74;100.00;100478.13;5036294;28;20056;-88
2023/03/19 08:44:03;;;;;;;2.85;1.00;;;;;;;9.13;100.00;100542.94;5044736;28;20474;-87
2023/03/19 08:46:30;;;;;;;4.18;1.30;;;;;;;8.50;100.00;100528.56;5054245;28;20053;-88
2023/03/19 08:48:59;;;;;;;2.58;1.00;;;;;;;8.58;100.00;100521.31;5036111;28;20080;-88
2023/03/19 08:51:29;;;;;;;9.20;1.65;;;;;;;8.84;100.00;100559.63;5030847;28;20044;-87
2023/03/19 08:53:56;;;;;;;4.75;1.33;;;;;;;8.77;100.00;100542.47;5054475;28;20052;-87
2023/03/19 08:56:23;;;;;;;5.13;1.23;;;;;;;8.73;100.00;100527.81;5033276;28;20052;-85
2023/03/19 08:58:50;;;;;;;3.42;1.10;;;;;;;8.86;100.00;100494.31;5031933;28;20067;-86
2023/03/19 09:01:16;;;;;;;3.90;1.30;;;;;;;8.74;100.00;100479.91;5053997;28;20049;-86
2023/03/19 09:03:44;;;;;;;4.28;1.23;;;;;;;8.63;100.00;100456.78;5040164;28;20825;-86
2023/03/19 09:06:13;;;;;;;2.63;1.05;;;;;;;9.36;100.00;100540.44;5029444;28;20103;-87
2023/03/19 09:08:41;;;;;;;3.40;1.10;;;;;;;8.82;100.00;100483.13;5029434;28;20162;-88
2023/03/19 09:11:07;;;;;;;4.47;1.35;;;;;;;9.20;100.00;100521.84;5049182;28;20412;-87
2023/03/19 09:13:34;;;;;;;1.70;1.00;;;;;;;9.14;100.00;100528.16;5024575;28;20127;-86
2023/03/19 09:16:01;;;;;;;2.03;0.90;;;;;;;9.04;100.00;100540.66;5034622;28;20045;-86
2023/03/19 09:18:28;;;;;;;4.65;1.30;;;;;;;8.59;100.00;100507.38;5030296;28;20045;-86
2023/03/19 09:20:55;;;;;;;1.67;0.90;;;;;;;8.92;100.00;100554.13;5044884;28;20044;-86
2023/03/19 09:23:22;;;;;;;2.45;1.00;;;;;;;9.18;100.00;100561.09;5054374;28;20056;-85
2023/03/19 09:25:49;;;;;;;2.80;1.10;;;;;;;9.16;100.00;100515.03;5047266;28;20068;-86
2023/03/19 09:28:17;;;;;;;3.05;0.93;;;;;;;9.25;100.00;100533.00;5050086;28;20045;-86
2023/03/19 09:30:48;;;;;;;4.72;1.30;;;;;;;9.14;100.00;100559.50;5035618;28;20483;-87
2023/03/19 09:33:16;;;;;;;1.55;0.90;;;;;;;9.50;100.00;100574.78;5034160;28;20060;-87
2023/03/19 09:35:48;;;;;;;3.55;1.20;;;;;;;9.23;100.00;100555.72;5045193;28;20052;-87
2023/03/19 09:38:15;;;;;;;4.40;1.10;;;;;;;9.27;100.00;100558.16;5034520;28;20498;-87
2023/03/19 09:40:47;;;;;;;4.47;1.10;;;;;;;9.17;100.00;100541.13;5029410;28;20050;-83
2023/03/19 09:43:23;;;;;;;3.53;1.30;;;;;;;9.60;100.00;100601.47;5035161;28;20524;-86
2023/03/19 09:45:50;;;;;;;4.38;1.35;;;;;;;9.16;100.00;100583.81;5024452;28;20867;-85
2023/03/19 09:48:56;;;;;;;5.10;1.25;;;;;;;9.29;100.00;100595.53;5030626;28;20467;-84
2023/03/19 09:51:45;;;;;;;2.30;1.00;;;;;;;9.19;100.00;100593.28;5028826;28;20650;-86
2023/03/19 09:54:27;;;;;;;3.53;1.10;;;;;;;9.12;100.00;100632.69;5049696;28;20049;-87
2023/03/19 09:56:54;;;;;;;6.13;1.02;;;;;;;8.66;100.00;100558.47;5021633;28;20487;-85
2023/03/19 09:59:23;;;;;;;2.67;1.00;;;;;;;8.61;100.00;100552.56;5033025;28;20057;-86
2023/03/19 10:02:05;;;;;;;3.33;1.10;;;;;;;9.10;100.00;100633.63;5052122;28;20060;-86
2023/03/19 10:04:41;;;;;;;7.10;1.30;;;;;;;9.28;100.00;100627.81;5049711;28;20079;-87
2023/03/19 10:07:23;;;;;;;3.35;1.10;;;;;;;9.41;100.00;100627.38;5034571;28;20076;-88
2023/03/19 10:10:25;;;;;;;3.38;1.02;;;;;;;9.09;100.00;100595.38;5045921;28;20078;-86
2023/03/19 10:13:14;;;;;;;2.35;1.10;;;;;;;9.59;100.00;100641.56;5033843;28;20055;-87
2023/03/19 10:15:43;;;;;;;2.55;1.02;;;;;;;9.34;100.00;100561.41;5031038;28;20045;-87
2023/03/19 10:18:17;;;;;;;3.30;1.40;;;;;;;9.71;100.00;100601.91;5029740;28;20398;-87
2023/03/19 10:21:05;;;;;;;3.42;1.10;;;;;;;9.77;100.00;100627.81;5050698;28;20528;-87
2023/03/19 10:23:51;;;;;;;4.38;1.10;;;;;;;9.13;100.00;100620.47;5022747;28;20044;-87
2023/03/19 10:26:21;;;;;;;3.90;1.10;;;;;;;9.38;100.00;100611.78;5035446;28;20459;-86
2023/03/19 10:29:13;;;;;;;4.50;1.10;;;;;;;9.79;100.00;100614.69;5050605;28;20048;-87
2023/03/19 10:31:50;;;;;;;5.13;1.35;;;;;;;9.85;100.00;100628.41;5016899;28;20055;-87
2023/03/19 10:34:28;;;;;;;5.05;1.25;;;;;;;9.48;100.00;100574.00;5051785;28;20548;-86
2023/03/19 10:37:21;;;;;;;5.53;1.45;;;;;;;10.03;100.00;100579.78;5026074;28;20041;-86
2023/03/19 10:39:50;;;;;;;3.35;1.27;;;;;;;10.35;100.00;100622.22;5031792;28;20049;-87
2023/03/19 10:42:39;;;;;;;4.10;1.10;;;;;;;10.21;100.00;100612.25;5033916;28;20490;-86
2023/03/19 10:45:30;;;;;;;3.42;1.05;;;;;;;10.50;100.00;100612.94;5034566;28;20053;-87
2023/03/19 10:47:58;;;;;;;2.65;0.90;;;;;;;10.32;100.00;100572.63;5023318;28;20056;-86
2023/03/19 10:50:37;;;;;;;2.92;1.10;;;;;;;10.36;100.00;100610.88;5034287;28;20052;-86
2023/03/19 10:53:13;;;;;;;3.83;1.10;;;;;;;10.26;100.00;100604.25;5034490;28;20110;-86
2023/03/19 10:55:52;;;;;;;3.78;1.00;;;;;;;10.64;100.00;100607.13;5032482;28;20441;-86
2023/03/19 10:58:22;;;;;;;3.63;1.10;;;;;;;10.63;100.00;100589.75;5031587;28;20045;-86
2023/03/19 11:01:05;;;;;;;8.88;1.52;;;;;;;10.52;100.00;100584.94;5043242;28;20045;-87
2023/03/19 11:03:33;;;;;;;3.47;1.30;;;;;;;10.46;100.00;100600.88;5040462;28;20057;-87
2023/03/19 11:06:06;;;;;;;4.68;1.20;;;;;;;10.37;100.00;100609.94;5049402;28;20072;-85
2023/03/19 11:08:35;;;;;;;3.25;1.20;;;;;;;10.23;100.00;100571.22;5049204;28;20045;-85
2023/03/19 11:11:02;;;;;;;4.68;1.13;;;;;;;10.45;100.00;100567.78;5037035;28;20049;-86
2023/03/19 11:13:32;;;;;;;5.10;1.20;;;;;;;10.20;100.00;100583.56;5034130;28;20052;-87
2023/03/19 11:16:00;;;;;;;4.47;1.42;;;;;;;10.28;100.00;100571.00;5029276;28;20045;-87
2023/03/19 11:18:35;;;;;;;3.58;1.10;;;;;;;10.60;100.00;100588.09;5039633;28;20051;-86
2023/03/19 11:21:20;;;;;;;3.55;1.10;;;;;;;10.68;100.00;100579.94;5031058;28;20041;-88
2023/03/19 11:23:52;;;;;;;3.70;1.10;;;;;;;11.04;100.00;100602.91;5032374;28;20056;-86
2023/03/19 11:26:20;;;;;;;5.45;1.52;;;;;;;10.89;100.00;100604.41;5033684;28;20068;-87
2023/03/19 11:28:50;;;;;;;3.78;1.20;;;;;;;10.65;100.00;100580.06;5031938;28;20063;-87
2023/03/19 11:31:25;;;;;;;3.55;1.40;;;;;;;10.79;100.00;100614.38;5050781;28;20041;-86
2023/03/19 11:34:01;;;;;;;6.68;2.13;;;;;;;10.84;100.00;100611.59;5032984;28;20064;-87